createdAt,value
2023-05-07T00:00:09.379Z,7.18
2023-05-07T00:02:37.191Z,6.80
2023-05-07T00:05:05.571Z,7.75
2023-05-07T00:07:32.689Z,8.00
2023-05-07T00:09:59.730Z,8.88
2023-05-07T00:12:26.829Z,8.25
2023-05-07T00:14:53.938Z,7.05
2023-05-07T00:17:21.244Z,7.95
2023-05-07T00:19:48.724Z,7.40
2023-05-07T00:22:15.817Z,8.18
2023-05-07T00:24:43.383Z,8.52
2023-05-07T00:27:10.545Z,7.35
2023-05-07T00:29:37.833Z,7.90
2023-05-07T00:32:05.228Z,7.15
2023-05-07T00:34:32.379Z,7.50
2023-05-07T00:36:59.438Z,8.13
2023-05-07T00:39:26.525Z,8.60
2023-05-07T00:41:53.564Z,8.63
2023-05-07T00:44:20.691Z,8.73
2023-05-07T00:46:50.935Z,9.35
2023-05-07T00:49:19.282Z,9.77
2023-05-07T00:51:46.850Z,8.90
2023-05-07T00:54:15.064Z,9.57
2023-05-07T00:56:42.409Z,10.27
2023-05-07T00:59:09.619Z,8.95
2023-05-07T01:01:37.916Z,8.52
2023-05-07T01:04:05.133Z,8.10
2023-05-07T01:06:33.805Z,8.88
2023-05-07T01:09:02.958Z,8.95
2023-05-07T01:11:30.016Z,9.77
2023-05-07T01:13:57.991Z,9.55
2023-05-07T01:16:25.226Z,10.43
2023-05-07T01:18:52.624Z,9.18
2023-05-07T01:21:23.959Z,10.88
2023-05-07T01:23:51.112Z,9.35
2023-05-07T01:26:20.575Z,9.93
2023-05-07T01:28:48.062Z,9.45
2023-05-07T01:31:17.654Z,9.20
2023-05-07T01:33:47.005Z,9.55
2023-05-07T01:36:15.806Z,10.68
2023-05-07T01:38:43.513Z,9.13
2023-05-07T01:41:11.198Z,11.80
2023-05-07T01:43:38.281Z,9.35
2023-05-07T01:46:05.900Z,9.20
2023-05-07T01:48:33.877Z,11.50
2023-05-07T01:51:01.754Z,9.60
2023-05-07T01:53:29.621Z,9.00
2023-05-07T01:55:56.801Z,9.02
2023-05-07T01:58:25.352Z,9.67
2023-05-07T02:00:52.535Z,12.50
2023-05-07T02:03:19.977Z,9.73
2023-05-07T02:05:56.535Z,8.82
2023-05-07T02:08:36.093Z,9.80
2023-05-07T02:11:03.352Z,9.07
2023-05-07T02:13:33.414Z,9.60
2023-05-07T02:16:01.600Z,8.90
2023-05-07T02:18:28.970Z,9.68
2023-05-07T02:20:56.223Z,9.95
2023-05-07T02:23:23.356Z,10.27
2023-05-07T02:25:50.825Z,10.53
2023-05-07T02:28:18.322Z,11.80
2023-05-07T02:31:11.318Z,10.05
2023-05-07T02:33:38.956Z,9.50
2023-05-07T02:36:10.846Z,9.65
2023-05-07T02:38:47.371Z,11.05
2023-05-07T02:41:14.491Z,11.40
2023-05-07T02:43:41.520Z,9.90
2023-05-07T02:46:10.002Z,9.60
2023-05-07T02:48:41.070Z,11.15
2023-05-07T02:51:08.346Z,10.57
2023-05-07T02:53:37.194Z,11.37
2023-05-07T02:56:04.528Z,11.83
2023-05-07T02:58:31.616Z,11.47
2023-05-07T03:01:00.563Z,10.00
2023-05-07T03:03:39.187Z,11.70
2023-05-07T03:06:08.081Z,11.27
2023-05-07T03:08:35.209Z,10.00
2023-05-07T03:11:02.262Z,10.87
2023-05-07T03:13:29.361Z,11.57
2023-05-07T03:15:56.876Z,10.30
2023-05-07T03:18:23.933Z,10.07
2023-05-07T03:20:51.179Z,10.27
2023-05-07T03:23:18.960Z,9.90
2023-05-07T03:25:46.067Z,10.90
2023-05-07T03:28:13.401Z,10.18
2023-05-07T03:30:47.110Z,49.53
2023-05-07T03:33:14.184Z,18.80
2023-05-07T03:35:41.664Z,18.07
2023-05-07T03:38:08.946Z,14.15
2023-05-07T03:40:37.797Z,12.03
2023-05-07T03:43:06.170Z,11.73
2023-05-07T03:45:36.076Z,11.95
2023-05-07T03:48:16.826Z,12.20
2023-05-07T03:50:44.229Z,10.90
2023-05-07T03:53:11.433Z,11.43
2023-05-07T03:55:40.333Z,11.53
2023-05-07T03:58:07.563Z,12.10
2023-05-07T04:00:39.166Z,11.43
2023-05-07T04:03:15.832Z,12.37
2023-05-07T04:05:43.141Z,10.87
2023-05-07T04:08:10.540Z,11.47
2023-05-07T04:10:41.638Z,11.97
2023-05-07T04:13:11.259Z,12.10
2023-05-07T04:15:38.908Z,11.20
2023-05-07T04:18:09.938Z,11.70
2023-05-07T04:20:38.312Z,12.07
2023-05-07T04:23:09.312Z,13.43
2023-05-07T04:25:36.953Z,10.93
2023-05-07T04:28:13.550Z,12.17
2023-05-07T04:30:42.350Z,11.63
2023-05-07T04:33:10.514Z,10.40
2023-05-07T04:35:39.292Z,15.10
2023-05-07T04:38:07.024Z,11.53
2023-05-07T04:40:36.352Z,12.00
2023-05-07T04:43:04.028Z,14.10
2023-05-07T04:45:34.397Z,11.47
2023-05-07T04:48:01.882Z,12.73
2023-05-07T04:50:31.556Z,13.00
2023-05-07T04:53:02.370Z,11.90
2023-05-07T04:55:29.787Z,12.23
2023-05-07T04:57:57.529Z,10.90
2023-05-07T05:00:26.280Z,11.53
2023-05-07T05:02:55.094Z,11.00
2023-05-07T05:05:23.470Z,12.90
2023-05-07T05:07:53.211Z,11.97
2023-05-07T05:10:22.468Z,14.70
2023-05-07T05:12:51.418Z,12.97
2023-05-07T05:15:18.786Z,15.43
2023-05-07T05:17:46.042Z,14.37
2023-05-07T05:20:13.485Z,12.53
2023-05-07T05:22:43.429Z,13.30
2023-05-07T05:25:11.401Z,13.87
2023-05-07T05:27:38.473Z,14.60
2023-05-07T05:30:06.937Z,13.00
2023-05-07T05:32:35.424Z,15.07
2023-05-07T05:35:02.968Z,13.93
2023-05-07T05:37:32.360Z,12.30
2023-05-07T05:40:01.642Z,14.70
2023-05-07T05:42:30.432Z,13.53
2023-05-07T05:44:57.561Z,13.03
2023-05-07T05:47:25.431Z,13.57
2023-05-07T05:49:55.488Z,12.43
2023-05-07T05:52:24.824Z,13.83
2023-05-07T05:54:52.292Z,13.87
2023-05-07T05:57:20.586Z,13.87
2023-05-07T05:59:48.502Z,16.00
2023-05-07T06:02:15.794Z,15.67
2023-05-07T06:04:43.847Z,14.43
2023-05-07T06:07:14.070Z,16.27
2023-05-07T06:09:42.119Z,14.17
2023-05-07T06:12:09.432Z,14.33
2023-05-07T06:14:36.966Z,13.77
2023-05-07T06:17:04.301Z,15.93
2023-05-07T06:19:32.016Z,14.83
2023-05-07T06:22:02.379Z,17.23
2023-05-07T06:24:30.944Z,14.73
2023-05-07T06:26:59.599Z,16.23
2023-05-07T06:29:28.044Z,17.37
2023-05-07T06:31:55.385Z,15.67
2023-05-07T06:34:23.974Z,15.60
2023-05-07T06:36:51.722Z,15.00
2023-05-07T06:39:31.640Z,16.37
2023-05-07T06:41:59.056Z,14.97
2023-05-07T06:44:31.977Z,15.73
2023-05-07T06:47:06.431Z,15.07
2023-05-07T06:49:34.703Z,16.17
2023-05-07T06:52:02.044Z,14.20
2023-05-07T06:54:31.104Z,13.50
2023-05-07T06:56:59.095Z,15.90
2023-05-07T06:59:28.029Z,15.20
2023-05-07T07:01:56.096Z,17.07
2023-05-07T07:04:24.974Z,14.03
2023-05-07T07:06:59.523Z,14.63
2023-05-07T07:09:26.573Z,15.43
2023-05-07T07:11:55.231Z,15.60
2023-05-07T07:14:22.923Z,16.00
2023-05-07T07:16:52.206Z,16.63
2023-05-07T07:19:21.446Z,15.53
2023-05-07T07:21:51.256Z,15.60
2023-05-07T07:24:22.148Z,14.80
2023-05-07T07:26:53.238Z,14.37
2023-05-07T07:29:21.650Z,15.70
2023-05-07T07:31:51.132Z,16.73
2023-05-07T07:34:19.810Z,18.43
2023-05-07T07:36:47.157Z,16.07
2023-05-07T07:39:17.733Z,17.43
2023-05-07T07:41:46.245Z,17.53
2023-05-07T07:44:15.834Z,15.10
2023-05-07T07:46:46.888Z,15.73
2023-05-07T07:49:14.321Z,18.23
2023-05-07T07:51:41.991Z,16.40
2023-05-07T07:54:11.018Z,15.85
2023-05-07T07:56:39.597Z,15.53
2023-05-07T07:59:07.692Z,16.10
2023-05-07T08:01:37.901Z,13.97
2023-05-07T08:04:06.744Z,16.13
2023-05-07T08:06:37.353Z,15.80
2023-05-07T08:09:04.658Z,14.55
2023-05-07T08:11:32.106Z,15.23
2023-05-07T08:13:59.663Z,16.77
2023-05-07T08:16:27.251Z,16.58
2023-05-07T08:18:54.404Z,16.90
2023-05-07T08:21:21.565Z,14.07
2023-05-07T08:23:48.785Z,15.80
2023-05-07T08:26:16.179Z,15.85
2023-05-07T08:28:44.125Z,14.05
2023-05-07T08:31:11.206Z,15.93
2023-05-07T08:33:41.062Z,14.75
2023-05-07T08:36:08.350Z,15.95
2023-05-07T08:38:36.419Z,14.70
2023-05-07T08:41:03.840Z,14.98
2023-05-07T08:43:34.668Z,13.98
2023-05-07T08:46:03.484Z,13.80
2023-05-07T08:48:34.800Z,16.27
2023-05-07T08:51:07.870Z,14.77
2023-05-07T08:53:37.215Z,14.80
2023-05-07T08:56:05.923Z,13.77
2023-05-07T08:58:33.289Z,15.00
2023-05-07T09:01:04.336Z,14.65
2023-05-07T09:03:32.364Z,14.80
2023-05-07T09:06:00.289Z,13.48
2023-05-07T09:08:29.164Z,15.35
2023-05-07T09:11:00.052Z,12.70
2023-05-07T09:13:28.924Z,13.85
2023-05-07T09:15:57.104Z,13.50
2023-05-07T09:18:26.788Z,13.20
2023-05-07T09:20:55.956Z,12.35
2023-05-07T09:23:23.193Z,14.43
2023-05-07T09:25:50.564Z,12.70
2023-05-07T09:28:26.968Z,14.07
2023-05-07T09:30:54.053Z,11.65
2023-05-07T09:33:21.488Z,13.00
2023-05-07T09:35:55.340Z,13.27
2023-05-07T09:38:23.952Z,11.65
2023-05-07T09:41:07.720Z,12.18
2023-05-07T09:43:41.872Z,13.80
2023-05-07T09:46:16.132Z,14.98
2023-05-07T09:48:50.600Z,13.88
2023-05-07T09:51:42.463Z,13.65
2023-05-07T09:54:11.766Z,11.95
2023-05-07T09:56:44.639Z,10.85
2023-05-07T09:59:15.064Z,11.70
2023-05-07T10:01:43.757Z,12.85
2023-05-07T10:04:12.485Z,12.82
2023-05-07T10:06:42.721Z,11.75
2023-05-07T10:09:12.209Z,11.55
2023-05-07T10:11:40.724Z,16.02
2023-05-07T10:14:09.159Z,12.30
2023-05-07T10:16:38.047Z,12.00
2023-05-07T10:19:13.414Z,12.93
2023-05-07T10:21:51.198Z,11.35
2023-05-07T10:24:23.079Z,14.10
2023-05-07T10:26:53.456Z,10.73
2023-05-07T10:29:30.500Z,12.48
2023-05-07T10:32:01.264Z,11.18
2023-05-07T10:34:38.766Z,11.95
2023-05-07T10:37:07.821Z,11.60
2023-05-07T10:39:35.978Z,13.55
2023-05-07T10:42:15.678Z,12.88
2023-05-07T10:44:48.615Z,10.70
2023-05-07T10:47:22.897Z,10.77
2023-05-07T10:49:53.080Z,11.35
2023-05-07T10:52:27.127Z,11.00
2023-05-07T10:55:21.057Z,10.68
2023-05-07T10:58:31.968Z,11.57
2023-05-07T11:02:07.356Z,8.70
2023-05-07T11:05:22.900Z,10.80
2023-05-07T11:08:16.335Z,10.35
2023-05-07T11:10:59.646Z,10.98
2023-05-07T11:13:48.828Z,9.80
2023-05-07T11:16:38.766Z,10.38
2023-05-07T11:19:17.628Z,9.63
2023-05-07T11:21:49.772Z,10.18
2023-05-07T11:24:47.051Z,8.95
2023-05-07T11:27:15.452Z,9.55
2023-05-07T11:29:48.669Z,10.63
2023-05-07T11:32:16.226Z,9.77
2023-05-07T11:34:53.787Z,9.48
2023-05-07T11:37:22.056Z,9.40
2023-05-07T11:40:10.371Z,9.48
2023-05-07T11:42:40.246Z,10.40
2023-05-07T11:45:08.488Z,8.75
2023-05-07T11:47:36.577Z,9.65
2023-05-07T11:50:06.933Z,9.48
2023-05-07T11:52:34.582Z,10.10
2023-05-07T11:55:04.675Z,9.38
2023-05-07T11:57:33.976Z,9.18
2023-05-07T12:00:06.009Z,9.63
2023-05-07T12:02:43.305Z,10.02
2023-05-07T12:05:11.207Z,9.57
2023-05-07T12:07:38.572Z,10.15
2023-05-07T12:10:08.655Z,8.73
2023-05-07T12:12:45.671Z,8.10
2023-05-07T12:15:16.546Z,9.25
2023-05-07T12:17:44.326Z,8.43
2023-05-07T12:20:11.942Z,9.25
2023-05-07T12:22:39.220Z,9.98
2023-05-07T12:25:07.917Z,9.73
2023-05-07T12:27:39.284Z,9.07
2023-05-07T12:30:06.947Z,8.70
2023-05-07T12:32:37.812Z,9.30
2023-05-07T12:35:07.709Z,8.82
2023-05-07T12:37:37.053Z,9.05
2023-05-07T12:40:11.524Z,8.55
2023-05-07T12:42:39.652Z,7.90
2023-05-07T12:45:17.509Z,7.35
2023-05-07T12:47:46.962Z,7.93
2023-05-07T12:50:15.436Z,7.93
2023-05-07T12:52:43.832Z,7.75
2023-05-07T12:55:13.796Z,9.18
2023-05-07T12:57:43.236Z,9.68
2023-05-07T13:00:10.946Z,8.13
2023-05-07T13:02:42.942Z,8.25
2023-05-07T13:05:10.483Z,7.95
2023-05-07T13:07:38.610Z,8.20
2023-05-07T13:10:06.374Z,7.65
2023-05-07T13:12:33.844Z,7.85
2023-05-07T13:15:00.887Z,8.45
2023-05-07T13:17:28.105Z,8.15
2023-05-07T13:19:55.319Z,7.45
2023-05-07T13:22:22.352Z,9.48
2023-05-07T13:24:49.415Z,7.95
2023-05-07T13:27:16.600Z,6.97
2023-05-07T13:29:43.645Z,7.93
2023-05-07T13:32:10.916Z,7.85
2023-05-07T13:34:38.227Z,7.30
2023-05-07T13:37:05.327Z,7.00
2023-05-07T13:39:32.694Z,7.78
2023-05-07T13:41:59.774Z,7.68
2023-05-07T13:44:27.719Z,9.40
2023-05-07T13:46:54.881Z,8.27
2023-05-07T13:49:22.021Z,8.02
2023-05-07T13:51:49.098Z,9.48
2023-05-07T13:54:16.996Z,7.80
2023-05-07T13:56:44.079Z,7.78
2023-05-07T13:59:11.148Z,7.50
2023-05-07T14:01:38.318Z,7.75
2023-05-07T14:04:05.597Z,7.10
2023-05-07T14:06:32.715Z,7.45
2023-05-07T14:08:59.822Z,8.27
2023-05-07T14:11:26.833Z,7.32
2023-05-07T14:13:53.888Z,7.95
2023-05-07T14:16:21.128Z,8.23
2023-05-07T14:18:48.237Z,7.70
2023-05-07T14:21:15.451Z,7.30
2023-05-07T14:23:42.573Z,7.55
2023-05-07T14:26:09.667Z,7.72
2023-05-07T14:28:36.750Z,7.30
2023-05-07T14:31:03.885Z,6.53
2023-05-07T14:33:31.137Z,7.55
2023-05-07T14:35:58.232Z,7.47
2023-05-07T14:38:25.453Z,7.38
2023-05-07T14:40:53.279Z,6.97
2023-05-07T14:43:20.582Z,7.20
2023-05-07T14:45:48.967Z,7.20
2023-05-07T14:48:16.294Z,7.10
2023-05-07T14:50:43.985Z,8.27
2023-05-07T14:53:11.020Z,8.50
2023-05-07T14:55:38.108Z,6.90
2023-05-07T14:58:05.218Z,7.85
2023-05-07T15:00:34.586Z,7.95
2023-05-07T15:03:09.586Z,7.68
2023-05-07T15:05:37.517Z,8.02
2023-05-07T15:08:04.688Z,7.95
2023-05-07T15:10:31.758Z,7.70
2023-05-07T15:12:58.882Z,7.50
2023-05-07T15:15:25.961Z,7.80
2023-05-07T15:17:55.090Z,8.07
2023-05-07T15:20:22.117Z,7.68
2023-05-07T15:22:50.083Z,7.55
2023-05-07T15:25:17.286Z,7.78
2023-05-07T15:27:45.288Z,7.65
2023-05-07T15:30:13.433Z,7.57
2023-05-07T15:32:41.577Z,7.63
2023-05-07T15:35:09.261Z,9.57
2023-05-07T15:37:36.573Z,7.07
2023-05-07T15:40:06.046Z,9.68
2023-05-07T15:42:33.762Z,7.75
2023-05-07T15:45:02.356Z,8.45
2023-05-07T15:47:33.487Z,8.95
2023-05-07T15:50:00.771Z,7.95
2023-05-07T15:52:29.248Z,8.30
2023-05-07T15:54:57.601Z,7.78
2023-05-07T15:57:25.410Z,8.13
2023-05-07T15:59:52.711Z,6.95
2023-05-07T16:02:19.800Z,7.10
2023-05-07T16:04:47.620Z,8.32
2023-05-07T16:07:14.654Z,8.48
2023-05-07T16:09:41.748Z,8.27
2023-05-07T16:12:08.818Z,8.80
2023-05-07T16:14:35.873Z,8.73
2023-05-07T16:17:02.995Z,8.23
2023-05-07T16:19:30.502Z,8.00
2023-05-07T16:21:57.959Z,8.82
2023-05-07T16:24:25.035Z,8.48
2023-05-07T16:26:52.065Z,8.43
2023-05-07T16:29:20.722Z,8.30
2023-05-07T16:31:47.760Z,8.02
2023-05-07T16:34:14.866Z,8.15
2023-05-07T16:36:41.998Z,9.50
2023-05-07T16:39:09.381Z,9.63
2023-05-07T16:41:36.631Z,8.50
2023-05-07T16:44:03.979Z,8.18
2023-05-07T16:46:32.093Z,8.10
2023-05-07T16:48:59.177Z,7.82
2023-05-07T16:51:26.285Z,9.20
2023-05-07T16:53:53.731Z,7.32
2023-05-07T16:56:21.157Z,7.70
2023-05-07T16:58:48.715Z,7.25
2023-05-07T17:01:16.938Z,7.25
2023-05-07T17:03:44.185Z,7.85
2023-05-07T17:06:15.366Z,8.38
2023-05-07T17:08:43.136Z,9.65
2023-05-07T17:11:11.029Z,7.68
2023-05-07T17:13:38.112Z,7.65
2023-05-07T17:16:05.616Z,7.93
2023-05-07T17:18:32.739Z,7.75
2023-05-07T17:20:59.803Z,8.80
2023-05-07T17:23:26.853Z,7.53
2023-05-07T17:25:53.847Z,8.25
2023-05-07T17:28:21.032Z,7.15
2023-05-07T17:30:48.774Z,7.50
2023-05-07T17:33:21.511Z,8.13
2023-05-07T17:35:49.770Z,8.73
2023-05-07T17:38:16.890Z,7.25
2023-05-07T17:40:43.991Z,7.65
2023-05-07T17:43:11.039Z,7.88
2023-05-07T17:45:38.109Z,8.68
2023-05-07T17:48:05.553Z,7.80
2023-05-07T17:50:32.757Z,8.38
2023-05-07T17:52:59.891Z,8.00
2023-05-07T17:55:26.991Z,9.13
2023-05-07T17:57:54.188Z,8.00
2023-05-07T18:00:21.540Z,8.05
2023-05-07T18:02:51.325Z,9.30
2023-05-07T18:05:18.464Z,7.60
2023-05-07T18:07:45.569Z,7.60
2023-05-07T18:10:12.969Z,8.02
2023-05-07T18:12:40.403Z,8.35
2023-05-07T18:15:08.030Z,7.53
2023-05-07T18:17:36.126Z,7.43
2023-05-07T18:20:11.635Z,9.40
2023-05-07T18:22:39.082Z,8.02
2023-05-07T18:25:06.768Z,7.40
2023-05-07T18:27:33.798Z,7.07
2023-05-07T18:30:00.885Z,7.80
2023-05-07T18:32:28.092Z,7.95
2023-05-07T18:34:55.375Z,7.68
2023-05-07T18:37:24.614Z,7.90
2023-05-07T18:39:52.421Z,6.95
2023-05-07T18:42:20.228Z,7.53
2023-05-07T18:44:47.271Z,7.53
2023-05-07T18:47:14.610Z,8.13
2023-05-07T18:49:41.777Z,7.70
2023-05-07T18:52:08.940Z,7.72
2023-05-07T18:54:35.975Z,7.00
2023-05-07T18:57:03.367Z,8.35
2023-05-07T18:59:30.500Z,11.57
2023-05-07T19:01:57.624Z,8.00
2023-05-07T19:04:24.868Z,8.15
2023-05-07T19:06:52.112Z,8.35
2023-05-07T19:09:19.252Z,7.47
2023-05-07T19:11:46.303Z,8.65
2023-05-07T19:14:13.363Z,7.85
2023-05-07T19:16:40.649Z,7.82
2023-05-07T19:19:07.746Z,7.68
2023-05-07T19:21:34.865Z,7.80
2023-05-07T19:24:01.984Z,7.55
2023-05-07T19:26:29.164Z,7.93
2023-05-07T19:29:12.228Z,8.65
2023-05-07T19:31:44.132Z,8.07
2023-05-07T19:34:13.232Z,8.15
2023-05-07T19:36:40.791Z,7.85
2023-05-07T19:39:07.819Z,8.10
2023-05-07T19:41:34.994Z,8.13
2023-05-07T19:44:02.170Z,8.00
2023-05-07T19:46:29.381Z,7.82
2023-05-07T19:48:56.477Z,7.85
2023-05-07T19:51:23.798Z,7.95
2023-05-07T19:53:51.485Z,8.10
2023-05-07T19:56:18.508Z,11.07
2023-05-07T19:58:45.633Z,8.20
2023-05-07T20:01:12.760Z,8.10
2023-05-07T20:03:40.050Z,8.32
2023-05-07T20:06:07.227Z,9.57
2023-05-07T20:08:34.301Z,9.20
2023-05-07T20:11:01.966Z,8.90
2023-05-07T20:13:29.413Z,7.55
2023-05-07T20:16:00.940Z,8.30
2023-05-07T20:18:29.183Z,8.27
2023-05-07T20:20:56.595Z,9.45
2023-05-07T20:23:24.342Z,7.97
2023-05-07T20:25:51.587Z,8.50
2023-05-07T20:28:18.904Z,8.25
2023-05-07T20:30:45.941Z,8.60
2023-05-07T20:33:13.281Z,8.90
2023-05-07T20:35:40.859Z,8.18
2023-05-07T20:38:08.174Z,9.70
2023-05-07T20:40:37.936Z,8.68
2023-05-07T20:43:08.058Z,10.43
2023-05-07T20:45:35.477Z,8.48
2023-05-07T20:48:02.701Z,8.00
2023-05-07T20:50:29.995Z,8.38
2023-05-07T20:52:57.008Z,9.10
2023-05-07T20:55:24.074Z,9.00
2023-05-07T20:57:51.177Z,8.45
2023-05-07T21:00:18.617Z,7.47
2023-05-07T21:02:45.834Z,8.80
2023-05-07T21:05:12.977Z,7.72
2023-05-07T21:07:40.065Z,7.80
2023-05-07T21:10:07.854Z,8.10
2023-05-07T21:12:35.010Z,8.23
2023-05-07T21:15:02.335Z,8.20
2023-05-07T21:17:31.802Z,8.50
2023-05-07T21:19:59.054Z,8.35
2023-05-07T21:22:26.507Z,8.73
2023-05-07T21:24:53.552Z,9.02
2023-05-07T21:27:23.206Z,8.75
2023-05-07T21:29:50.586Z,8.68
2023-05-07T21:32:17.638Z,8.63
2023-05-07T21:34:44.722Z,8.45
2023-05-07T21:37:11.771Z,8.60
2023-05-07T21:39:38.869Z,8.25
2023-05-07T21:42:05.896Z,8.63
2023-05-07T21:44:33.030Z,8.98
2023-05-07T21:47:00.033Z,8.63
2023-05-07T21:49:27.258Z,8.98
2023-05-07T21:51:54.281Z,8.73
2023-05-07T21:54:21.439Z,8.30
2023-05-07T21:56:50.059Z,9.40
2023-05-07T21:59:17.288Z,8.48
2023-05-07T22:01:44.427Z,8.38
2023-05-07T22:04:11.657Z,9.45
2023-05-07T22:06:38.811Z,10.05
2023-05-07T22:09:06.331Z,8.00
2023-05-07T22:11:33.406Z,7.88
2023-05-07T22:14:00.791Z,10.30
2023-05-07T22:16:28.084Z,9.50
2023-05-07T22:18:55.385Z,9.10
2023-05-07T22:21:22.697Z,8.50
2023-05-07T22:23:49.728Z,8.30
2023-05-07T22:26:16.812Z,7.63
2023-05-07T22:28:44.013Z,7.90
2023-05-07T22:31:11.435Z,8.48
2023-05-07T22:33:38.532Z,8.52
2023-05-07T22:36:07.726Z,8.07
2023-05-07T22:38:34.815Z,8.00
2023-05-07T22:41:01.875Z,7.97
2023-05-07T22:43:28.968Z,8.43
2023-05-07T22:46:02.356Z,7.80
2023-05-07T22:48:29.865Z,8.85
2023-05-07T22:50:56.900Z,8.75
2023-05-07T22:53:24.114Z,7.72
2023-05-07T22:55:51.317Z,9.32
2023-05-07T22:58:18.481Z,7.68
2023-05-07T23:00:45.578Z,9.05
2023-05-07T23:03:12.871Z,7.70
2023-05-07T23:05:40.281Z,9.25
2023-05-07T23:08:07.300Z,7.78
2023-05-07T23:10:35.114Z,8.63
2023-05-07T23:13:02.897Z,8.43
2023-05-07T23:15:30.158Z,8.07
2023-05-07T23:17:57.222Z,8.10
2023-05-07T23:20:24.276Z,8.20
2023-05-07T23:22:51.350Z,10.00
2023-05-07T23:25:18.515Z,8.27
2023-05-07T23:27:45.688Z,8.82
2023-05-07T23:30:13.565Z,8.85
2023-05-07T23:32:40.867Z,8.20
2023-05-07T23:35:08.590Z,8.00
2023-05-07T23:37:35.757Z,8.30
2023-05-07T23:40:02.840Z,8.13
2023-05-07T23:42:29.943Z,10.15
2023-05-07T23:44:57.294Z,9.63
2023-05-07T23:47:24.405Z,8.63
2023-05-07T23:49:51.428Z,8.60
2023-05-07T23:52:18.578Z,7.90
2023-05-07T23:54:45.565Z,7.80
2023-05-07T23:57:12.675Z,8.65
2023-05-07T23:59:39.854Z,7.95
